Time;durP1;ratioP1;P1;durP2;ratioP2;P2;SDS_P1;SDS_P2;PMS_P1;PMS_P2;Temp;Humidity;BMP_temperature;BMP_pressure;BME280_temperature;BME280_humidity;BME280_pressure;Samples;Min_cycle;Max_cycle;Signal;HPM_P1;HPM_P2
2022/03/16 00:01:53;;;;;;;26.70;17.38;;;11.60;99.90;;;;;;5045650;28;20025;-67
2022/03/16 00:04:19;;;;;;;25.48;17.70;;;11.60;99.90;;;;;;5047598;28;20119;-67
2022/03/16 00:06:44;;;;;;;26.23;17.35;;;11.60;99.90;;;;;;5042802;28;20505;-67
2022/03/16 00:09:10;;;;;;;25.45;16.13;;;11.50;99.90;;;;;;5043704;28;20033;-67
2022/03/16 00:11:36;;;;;;;27.27;16.45;;;11.50;99.90;;;;;;5047127;28;20087;-67
2022/03/16 00:14:02;;;;;;;27.50;16.23;;;11.50;99.90;;;;;;5047966;28;20095;-67
2022/03/16 00:16:28;;;;;;;23.45;15.63;;;11.40;99.90;;;;;;5048170;28;20055;-67
2022/03/16 00:18:54;;;;;;;27.02;15.25;;;11.40;99.90;;;;;;5046693;28;20028;-67
2022/03/16 00:21:19;;;;;;;22.42;14.50;;;11.40;99.90;;;;;;5046334;28;20036;-67
2022/03/16 00:23:45;;;;;;;22.10;15.32;;;11.40;99.90;;;;;;5046254;28;20562;-67
2022/03/16 00:26:11;;;;;;;24.80;14.98;;;11.40;99.90;;;;;;5047680;28;20076;-67
2022/03/16 00:28:37;;;;;;;20.65;14.35;;;11.40;99.90;;;;;;5049667;28;20029;-67
2022/03/16 00:31:03;;;;;;;24.60;15.57;;;11.40;99.90;;;;;;5046827;28;20119;-67
2022/03/16 00:33:29;;;;;;;22.98;15.30;;;11.40;99.90;;;;;;5043993;28;20476;-67
2022/03/16 00:35:54;;;;;;;21.50;15.68;;;11.30;99.90;;;;;;5046194;28;20636;-67
2022/03/16 00:38:20;;;;;;;27.67;16.95;;;11.20;99.90;;;;;;5046318;28;20025;-67
2022/03/16 00:40:46;;;;;;;33.22;21.55;;;11.10;99.90;;;;;;5047274;28;20037;-67
2022/03/16 00:43:14;;;;;;;35.10;23.42;;;11.10;99.90;;;;;;5042173;28;20040;-68
2022/03/16 00:45:42;;;;;;;34.35;23.88;;;11.00;99.90;;;;;;5046354;28;20443;-67
2022/03/16 00:48:07;;;;;;;39.42;25.10;;;11.00;99.90;;;;;;5048767;28;20094;-67
2022/03/16 00:50:34;;;;;;;37.30;23.15;;;10.90;99.90;;;;;;5048560;28;20017;-68
2022/03/16 00:53:00;;;;;;;35.92;22.65;;;11.00;99.90;;;;;;5050954;28;20021;-68
2022/03/16 00:55:26;;;;;;;27.48;20.98;;;11.00;99.90;;;;;;5050370;28;20037;-67
2022/03/16 00:57:52;;;;;;;29.40;19.92;;;11.10;99.90;;;;;;5046474;28;20029;-68
2022/03/16 01:00:18;;;;;;;32.75;18.60;;;11.10;99.90;;;;;;5049260;28;20169;-67
2022/03/16 01:02:43;;;;;;;29.55;19.33;;;11.20;99.90;;;;;;5048636;28;20508;-67
2022/03/16 01:05:09;;;;;;;33.28;19.73;;;11.20;99.90;;;;;;5051439;28;20036;-67
2022/03/16 01:07:35;;;;;;;32.97;19.83;;;11.20;99.90;;;;;;5045513;28;20024;-67
2022/03/16 01:10:02;;;;;;;32.95;20.48;;;11.20;99.90;;;;;;5044634;28;20031;-67
2022/03/16 01:12:27;;;;;;;34.08;20.90;;;11.20;99.90;;;;;;5044125;28;20025;-67
2022/03/16 01:14:53;;;;;;;34.47;22.38;;;11.20;99.90;;;;;;5048715;28;20048;-67
2022/03/16 01:17:19;;;;;;;34.53;23.33;;;11.20;99.90;;;;;;5049400;28;20028;-67
2022/03/16 01:19:45;;;;;;;36.45;22.98;;;11.20;99.90;;;;;;5050031;28;20021;-67
2022/03/16 01:22:10;;;;;;;36.45;23.63;;;11.30;99.90;;;;;;5045742;28;20041;-67
2022/03/16 01:24:36;;;;;;;36.45;24.50;;;11.40;99.90;;;;;;5047624;28;20024;-67
2022/03/16 01:27:02;;;;;;;40.28;26.42;;;11.40;99.90;;;;;;5042485;28;20025;-67
2022/03/16 01:29:28;;;;;;;46.88;26.15;;;11.40;99.90;;;;;;5044596;28;20033;-67
2022/03/16 01:31:55;;;;;;;44.55;26.88;;;11.40;99.90;;;;;;5046847;28;20425;-67
2022/03/16 01:34:21;;;;;;;39.47;26.35;;;11.40;99.90;;;;;;5046453;28;20039;-67
2022/03/16 01:36:48;;;;;;;42.63;27.02;;;11.40;99.90;;;;;;5046039;28;20029;-67
2022/03/16 01:39:15;;;;;;;45.65;27.25;;;11.50;99.90;;;;;;5049291;28;20036;-67
2022/03/16 01:41:42;;;;;;;36.90;26.25;;;11.40;99.90;;;;;;5050430;28;20036;-67
2022/03/16 01:44:09;;;;;;;38.83;26.38;;;11.50;99.90;;;;;;5046080;28;20040;-67
2022/03/16 01:46:35;;;;;;;41.50;26.63;;;11.50;99.90;;;;;;5045468;28;20113;-67
2022/03/16 01:49:01;;;;;;;41.50;25.95;;;11.50;99.90;;;;;;5045886;28;20029;-67
2022/03/16 01:51:27;;;;;;;36.38;24.70;;;11.50;99.90;;;;;;5046963;28;20033;-67
2022/03/16 01:53:53;;;;;;;34.80;23.77;;;11.50;99.90;;;;;;5050608;28;20044;-67
2022/03/16 01:56:19;;;;;;;42.75;25.88;;;11.50;99.90;;;;;;5046982;28;20024;-67
2022/03/16 01:58:45;;;;;;;36.10;24.95;;;11.50;99.90;;;;;;5045105;28;20040;-67
2022/03/16 02:01:11;;;;;;;41.20;25.42;;;11.50;99.90;;;;;;5047331;28;20033;-67
2022/03/16 02:03:37;;;;;;;40.20;25.85;;;11.50;99.90;;;;;;5045429;28;20090;-67
2022/03/16 02:06:03;;;;;;;38.92;24.52;;;11.50;99.90;;;;;;5051596;28;20028;-67
2022/03/16 02:08:36;;;;;;;37.55;24.13;;;11.50;99.90;;;;;;5046807;28;20025;-67
2022/03/16 02:11:03;;;;;;;37.00;24.83;;;11.50;99.90;;;;;;5051039;28;20051;-67
2022/03/16 02:13:29;;;;;;;38.42;23.40;;;11.50;99.90;;;;;;5044576;28;20045;-67
2022/03/16 02:15:55;;;;;;;35.63;22.38;;;11.50;99.90;;;;;;5044085;28;20087;-67
2022/03/16 02:18:21;;;;;;;37.65;22.08;;;11.40;99.90;;;;;;5046505;28;20029;-67
2022/03/16 02:20:50;;;;;;;34.63;21.88;;;11.40;99.90;;;;;;5049321;28;20032;-67
2022/03/16 02:23:17;;;;;;;32.15;20.55;;;11.40;99.90;;;;;;5052007;28;20051;-68
2022/03/16 02:25:54;;;;;;;33.28;21.48;;;11.40;99.90;;;;;;5043654;28;20060;-67
2022/03/16 02:28:20;;;;;;;29.02;20.45;;;11.40;99.90;;;;;;5046902;28;20033;-67
2022/03/16 02:30:47;;;;;;;33.30;20.27;;;11.40;99.90;;;;;;5048790;28;20034;-66
2022/03/16 02:33:13;;;;;;;27.00;20.40;;;11.40;99.90;;;;;;5051208;28;20041;-66
2022/03/16 02:35:38;;;;;;;34.85;20.92;;;11.40;99.90;;;;;;5051560;28;20083;-66
2022/03/16 02:38:04;;;;;;;34.75;21.40;;;11.30;99.90;;;;;;5047710;28;20117;-67
2022/03/16 02:40:30;;;;;;;33.33;21.40;;;11.20;99.90;;;;;;5049416;28;20127;-66
2022/03/16 02:42:56;;;;;;;33.40;20.42;;;11.20;99.90;;;;;;5052971;28;20092;-66
2022/03/16 02:45:22;;;;;;;31.27;20.40;;;11.20;99.90;;;;;;5050829;28;20590;-67
2022/03/16 02:47:48;;;;;;;31.98;21.95;;;11.20;99.90;;;;;;5047128;28;20035;-66
2022/03/16 02:50:18;;;;;;;36.47;21.55;;;11.20;99.90;;;;;;5047991;28;20115;-66
2022/03/16 02:52:45;;;;;;;37.67;22.60;;;11.20;99.90;;;;;;5043864;28;20032;-66
2022/03/16 02:55:11;;;;;;;30.48;22.52;;;11.30;99.90;;;;;;5051827;28;20041;-66
2022/03/16 02:57:37;;;;;;;32.70;22.58;;;11.30;99.90;;;;;;5049937;28;20051;-67
2022/03/16 03:00:08;;;;;;;34.38;22.85;;;11.30;99.90;;;;;;5047084;28;20032;-67
2022/03/16 03:02:34;;;;;;;34.33;21.92;;;11.20;99.90;;;;;;5047084;28;20048;-67
2022/03/16 03:05:00;;;;;;;33.10;22.05;;;11.20;99.90;;;;;;5047761;28;20516;-67
2022/03/16 03:07:25;;;;;;;31.08;21.40;;;11.20;99.90;;;;;;5063985;28;20029;-67
2022/03/16 03:09:51;;;;;;;29.13;20.60;;;11.30;99.90;;;;;;5053209;28;20460;-67
2022/03/16 03:12:17;;;;;;;31.38;20.00;;;11.30;99.90;;;;;;5049772;28;20033;-67
2022/03/16 03:14:43;;;;;;;28.58;19.85;;;11.30;99.90;;;;;;5048126;28;20164;-67
2022/03/16 03:17:09;;;;;;;31.85;19.17;;;11.20;99.90;;;;;;5047365;28;20084;-67
2022/03/16 03:19:35;;;;;;;31.83;18.48;;;11.20;99.90;;;;;;5048855;28;20132;-67
2022/03/16 03:22:01;;;;;;;29.25;18.42;;;11.20;99.90;;;;;;5046967;28;20026;-68
2022/03/16 03:24:27;;;;;;;26.40;18.90;;;11.20;99.90;;;;;;5051147;28;20106;-67
2022/03/16 03:26:52;;;;;;;32.38;18.20;;;11.20;99.90;;;;;;5053472;28;20068;-67
2022/03/16 03:29:18;;;;;;;26.00;18.30;;;11.30;99.90;;;;;;5047117;28;20035;-67
2022/03/16 03:31:44;;;;;;;25.73;16.90;;;11.30;99.90;;;;;;5046455;28;20029;-67
2022/03/16 03:34:10;;;;;;;30.88;18.63;;;11.20;99.90;;;;;;5046404;28;20052;-67
2022/03/16 03:36:36;;;;;;;24.48;17.15;;;11.20;99.90;;;;;;5048569;28;20030;-67
2022/03/16 03:39:03;;;;;;;34.17;17.88;;;11.20;99.90;;;;;;5051227;28;20033;-67
2022/03/16 03:41:29;;;;;;;30.05;18.30;;;11.20;99.90;;;;;;5048288;28;20029;-68
2022/03/16 03:43:55;;;;;;;27.58;17.48;;;11.10;99.90;;;;;;5045727;28;20033;-68
2022/03/16 03:46:21;;;;;;;34.83;18.35;;;11.20;99.90;;;;;;5044532;28;20037;-68
2022/03/16 03:48:47;;;;;;;27.92;17.42;;;11.10;99.90;;;;;;5047091;28;20025;-67
2022/03/16 03:51:13;;;;;;;31.98;17.70;;;11.10;99.90;;;;;;5051045;28;20043;-67
2022/03/16 03:53:39;;;;;;;31.58;18.40;;;11.10;99.90;;;;;;5049349;28;20488;-67
2022/03/16 03:56:05;;;;;;;28.70;18.45;;;11.20;99.90;;;;;;5046090;28;20044;-67
2022/03/16 03:58:31;;;;;;;31.10;17.60;;;11.10;99.90;;;;;;5052604;28;20025;-67
2022/03/16 04:00:57;;;;;;;29.08;16.90;;;11.20;99.90;;;;;;5044596;28;20083;-67
2022/03/16 04:03:24;;;;;;;32.58;17.38;;;11.20;99.90;;;;;;5050090;28;20083;-67
2022/03/16 04:05:49;;;;;;;29.10;17.73;;;11.20;99.90;;;;;;5051650;28;20017;-68
2022/03/16 04:08:15;;;;;;;33.35;18.17;;;11.20;99.90;;;;;;5048200;28;20040;-68
2022/03/16 04:10:41;;;;;;;34.05;19.27;;;11.20;99.90;;;;;;5046884;28;20021;-67
2022/03/16 04:13:07;;;;;;;34.42;19.10;;;11.30;99.90;;;;;;5053008;28;20115;-68
2022/03/16 04:15:33;;;;;;;34.78;18.77;;;11.20;99.90;;;;;;5049686;28;20053;-68
2022/03/16 04:17:59;;;;;;;38.65;18.92;;;11.10;99.90;;;;;;5048248;28;20032;-68
2022/03/16 04:20:25;;;;;;;32.40;18.55;;;11.20;99.90;;;;;;5048923;28;20056;-67
2022/03/16 04:22:51;;;;;;;31.40;18.33;;;11.20;99.90;;;;;;5045989;28;20053;-67
2022/03/16 04:25:17;;;;;;;39.03;19.35;;;11.20;99.90;;;;;;5051947;28;20142;-67
2022/03/16 04:27:43;;;;;;;32.20;18.67;;;11.30;99.90;;;;;;5052096;28;20068;-67
2022/03/16 04:30:12;;;;;;;33.25;19.23;;;11.20;99.90;;;;;;5048072;28;20063;-67
2022/03/16 04:32:38;;;;;;;32.88;16.30;;;11.30;99.90;;;;;;5049121;28;20029;-68
2022/03/16 04:35:04;;;;;;;39.83;18.80;;;11.30;99.90;;;;;;5046959;28;20055;-67
2022/03/16 04:37:30;;;;;;;35.85;17.83;;;11.40;99.90;;;;;;5053167;28;20028;-68
2022/03/16 04:39:56;;;;;;;29.58;17.30;;;11.40;99.90;;;;;;5055478;28;20405;-68
2022/03/16 04:42:21;;;;;;;36.35;17.05;;;11.40;99.90;;;;;;5048485;28;20029;-68
2022/03/16 04:44:47;;;;;;;33.58;18.42;;;11.30;99.90;;;;;;5048655;28;20063;-68
2022/03/16 04:47:13;;;;;;;29.48;17.90;;;11.30;99.90;;;;;;5046726;28;20028;-67
2022/03/16 04:49:38;;;;;;;35.55;18.98;;;11.30;99.90;;;;;;5044727;28;20056;-67
2022/03/16 04:52:04;;;;;;;32.55;17.67;;;11.20;99.90;;;;;;5044195;28;20018;-67
2022/03/16 04:54:30;;;;;;;29.92;18.52;;;11.20;99.90;;;;;;5048752;28;20045;-67
2022/03/16 04:56:56;;;;;;;32.72;19.48;;;11.20;99.90;;;;;;5049138;28;20032;-67
2022/03/16 04:59:22;;;;;;;33.50;18.95;;;11.20;99.90;;;;;;5044571;28;20025;-67
2022/03/16 05:01:48;;;;;;;31.98;18.92;;;11.10;99.90;;;;;;5043503;28;20025;-67
2022/03/16 05:04:14;;;;;;;32.40;19.67;;;11.20;99.90;;;;;;5050940;28;20033;-67
2022/03/16 05:06:42;;;;;;;35.58;18.80;;;11.10;99.90;;;;;;5044637;28;20436;-67
2022/03/16 05:09:08;;;;;;;31.48;18.67;;;11.10;99.90;;;;;;5042469;28;20033;-67
2022/03/16 05:11:35;;;;;;;30.90;18.17;;;11.10;99.90;;;;;;5052975;28;20564;-67
2022/03/16 05:14:02;;;;;;;31.60;18.30;;;11.20;99.90;;;;;;5052142;28;20049;-67
2022/03/16 05:16:28;;;;;;;27.33;17.30;;;11.10;99.90;;;;;;5042589;28;20124;-67
2022/03/16 05:18:53;;;;;;;25.73;15.60;;;11.10;99.90;;;;;;5052847;28;20493;-68
2022/03/16 05:21:19;;;;;;;25.42;16.55;;;11.10;99.90;;;;;;5052033;28;20481;-68
2022/03/16 05:23:45;;;;;;;28.48;15.50;;;11.00;99.90;;;;;;5052832;28;20032;-68
2022/03/16 05:26:10;;;;;;;25.17;15.98;;;11.10;99.90;;;;;;5053051;28;20094;-68
2022/03/16 05:28:36;;;;;;;29.58;16.75;;;11.10;99.90;;;;;;5051845;28;20442;-67
2022/03/16 05:31:02;;;;;;;27.25;17.52;;;11.00;99.90;;;;;;5053347;28;20051;-66
2022/03/16 05:33:28;;;;;;;27.20;17.25;;;11.00;99.90;;;;;;5052361;28;20514;-66
2022/03/16 05:35:54;;;;;;;30.13;17.30;;;11.10;99.90;;;;;;5052890;28;20485;-66
2022/03/16 05:38:20;;;;;;;29.30;18.48;;;11.00;99.90;;;;;;5052585;28;20075;-67
2022/03/16 05:40:45;;;;;;;28.77;16.88;;;10.90;99.90;;;;;;5051979;28;20397;-66
2022/03/16 05:43:13;;;;;;;28.02;18.20;;;10.90;99.90;;;;;;5052386;28;20068;-67
2022/03/16 05:45:39;;;;;;;31.52;17.83;;;10.90;99.90;;;;;;5052525;28;20037;-66
2022/03/16 05:48:05;;;;;;;27.67;17.05;;;10.80;99.90;;;;;;5052739;28;20036;-66
2022/03/16 05:50:31;;;;;;;28.02;14.82;;;10.90;99.90;;;;;;5052537;28;20024;-67
2022/03/16 05:52:58;;;;;;;22.80;15.80;;;10.90;99.90;;;;;;5052111;28;20501;-66
2022/03/16 05:55:24;;;;;;;22.08;15.20;;;10.90;99.90;;;;;;5051598;28;20091;-66
2022/03/16 05:57:50;;;;;;;27.17;15.52;;;10.90;99.90;;;;;;5052878;28;20025;-66
2022/03/16 06:00:21;;;;;;;23.20;15.75;;;10.90;99.90;;;;;;5052562;28;20036;-66
2022/03/16 06:02:48;;;;;;;22.33;14.02;;;11.00;99.90;;;;;;5054389;28;20096;-67
2022/03/16 06:05:15;;;;;;;24.10;14.70;;;10.90;99.90;;;;;;5053828;28;20027;-66
2022/03/16 06:07:42;;;;;;;21.92;15.23;;;10.90;99.90;;;;;;5055919;28;20056;-68
2022/03/16 06:10:09;;;;;;;21.42;14.85;;;10.90;99.90;;;;;;5056421;28;20024;-66
2022/03/16 06:13:00;;;;;;;21.73;14.00;;;10.90;99.90;;;;;;5056200;28;20025;-67
2022/03/16 06:15:27;;;;;;;21.80;14.52;;;10.90;99.90;;;;;;5055971;28;20460;-67
2022/03/16 06:17:58;;;;;;;23.70;15.40;;;11.00;99.90;;;;;;5056285;28;20025;-67
2022/03/16 06:20:25;;;;;;;23.60;16.23;;;10.90;99.90;;;;;;5056332;28;20061;-66
2022/03/16 06:22:51;;;;;;;23.73;16.25;;;10.90;99.90;;;;;;5055752;28;20510;-68
2022/03/16 06:25:17;;;;;;;28.80;16.85;;;10.80;99.90;;;;;;5055373;28;20061;-69
2022/03/16 06:27:43;;;;;;;27.77;17.27;;;10.80;99.90;;;;;;5056088;28;20108;-67
2022/03/16 06:30:09;;;;;;;24.80;15.95;;;10.80;99.90;;;;;;5048958;28;20171;-67
2022/03/16 06:32:36;;;;;;;23.63;16.38;;;10.90;99.90;;;;;;5051024;28;20055;-66
2022/03/16 06:35:05;;;;;;;24.15;15.15;;;10.90;99.90;;;;;;5051078;28;20528;-66
2022/03/16 06:37:31;;;;;;;23.23;15.68;;;10.90;99.90;;;;;;5053366;28;20516;-67
2022/03/16 06:39:57;;;;;;;28.08;16.08;;;10.80;99.90;;;;;;5056606;28;20025;-65
2022/03/16 06:42:23;;;;;;;23.17;15.93;;;10.80;99.90;;;;;;5055580;28;20036;-64
2022/03/16 06:44:49;;;;;;;21.90;16.25;;;10.80;99.90;;;;;;5056166;28;20044;-65
2022/03/16 06:47:14;;;;;;;22.55;15.90;;;10.90;99.90;;;;;;5051214;28;20032;-64
2022/03/16 06:49:40;;;;;;;28.42;16.98;;;11.00;99.90;;;;;;5051082;28;20470;-64
2022/03/16 06:52:06;;;;;;;22.98;16.27;;;11.00;99.90;;;;;;5049131;28;20087;-64
2022/03/16 06:54:32;;;;;;;32.05;16.95;;;11.10;99.90;;;;;;5045685;28;20394;-65
2022/03/16 06:56:58;;;;;;;27.83;17.75;;;11.10;99.90;;;;;;5045808;28;20112;-65
2022/03/16 06:59:23;;;;;;;26.77;17.63;;;11.10;99.90;;;;;;5050393;28;20025;-65
2022/03/16 07:01:49;;;;;;;23.80;17.60;;;11.10;99.90;;;;;;5045355;28;20033;-64
2022/03/16 07:04:15;;;;;;;24.05;17.05;;;11.20;99.90;;;;;;5046461;28;20116;-65
2022/03/16 07:06:40;;;;;;;25.55;17.75;;;11.30;99.90;;;;;;5051595;28;20112;-65
2022/03/16 07:09:06;;;;;;;26.55;17.75;;;11.30;99.90;;;;;;5048120;28;20038;-64
2022/03/16 07:11:32;;;;;;;26.75;17.45;;;11.30;99.90;;;;;;5052810;28;20032;-65
2022/03/16 07:16:41;;;;;;;27.92;16.05;;;11.50;99.90;;;;;;5049726;28;20045;-66
2022/03/16 07:19:08;;;;;;;23.23;16.50;;;11.50;99.90;;;;;;5051427;28;20029;-65
2022/03/16 07:21:34;;;;;;;23.77;15.30;;;11.60;99.90;;;;;;5050264;28;20036;-65
2022/03/16 07:24:00;;;;;;;22.58;16.15;;;11.60;99.90;;;;;;5053743;28;20025;-64
2022/03/16 07:26:27;;;;;;;26.20;16.17;;;11.70;99.90;;;;;;5054682;28;20478;-67
2022/03/16 07:28:53;;;;;;;26.42;16.98;;;11.70;99.90;;;;;;5049718;28;20025;-66
2022/03/16 07:31:19;;;;;;;26.33;16.58;;;11.70;99.90;;;;;;5051237;28;20021;-67
2022/03/16 07:33:45;;;;;;;26.63;16.27;;;11.80;99.90;;;;;;5049872;28;20041;-64
2022/03/16 07:36:11;;;;;;;27.52;16.50;;;11.80;99.90;;;;;;5048200;28;20021;-64
2022/03/16 07:38:36;;;;;;;24.00;17.30;;;11.90;99.90;;;;;;5050682;28;20036;-64
2022/03/16 07:41:02;;;;;;;23.08;16.17;;;11.80;99.90;;;;;;5050698;28;20434;-63
2022/03/16 07:43:29;;;;;;;26.15;15.68;;;11.90;99.90;;;;;;5048901;28;20553;-63
2022/03/16 07:45:56;;;;;;;25.30;16.88;;;12.00;99.90;;;;;;5047617;28;20483;-63
2022/03/16 07:48:22;;;;;;;30.52;17.58;;;12.00;99.90;;;;;;5047713;28;20051;-63
2022/03/16 07:50:50;;;;;;;26.45;16.85;;;12.10;99.90;;;;;;5048067;28;20104;-64
2022/03/16 07:53:16;;;;;;;24.10;16.33;;;12.10;99.90;;;;;;5041056;28;20041;-64
2022/03/16 07:55:42;;;;;;;28.70;17.10;;;12.10;99.90;;;;;;5044823;28;20032;-64
2022/03/16 07:58:08;;;;;;;29.15;18.23;;;12.20;99.90;;;;;;5046139;28;20044;-64
2022/03/16 08:00:33;;;;;;;28.15;18.38;;;12.20;99.90;;;;;;5043301;28;20401;-64
2022/03/16 08:03:01;;;;;;;26.08;17.63;;;12.30;99.90;;;;;;5045847;28;20549;-64
2022/03/16 08:05:27;;;;;;;28.05;18.83;;;12.30;99.90;;;;;;5052340;28;20033;-64
2022/03/16 08:07:53;;;;;;;25.33;17.98;;;12.40;99.90;;;;;;5034416;28;20033;-65
2022/03/16 08:10:20;;;;;;;30.55;19.35;;;12.40;99.90;;;;;;5043776;28;20029;-65
2022/03/16 08:12:46;;;;;;;29.17;19.80;;;12.40;99.90;;;;;;5038870;28;20401;-66
2022/03/16 08:15:13;;;;;;;28.38;19.95;;;12.50;99.90;;;;;;5042400;28;20087;-65
2022/03/16 08:17:38;;;;;;;33.67;21.33;;;12.60;99.90;;;;;;5044499;28;20033;-68
2022/03/16 08:20:05;;;;;;;34.60;22.75;;;12.70;99.90;;;;;;5047846;28;20033;-65
2022/03/16 08:22:33;;;;;;;35.45;24.33;;;12.70;99.90;;;;;;5051008;28;20059;-66
2022/03/16 08:25:01;;;;;;;35.47;24.40;;;12.80;99.90;;;;;;5048340;28;20097;-65
2022/03/16 08:27:28;;;;;;;37.42;22.25;;;12.80;99.90;;;;;;5048239;28;20021;-72
2022/03/16 08:29:54;;;;;;;32.58;22.00;;;12.90;99.90;;;;;;5048888;28;20035;-67
2022/03/16 08:32:21;;;;;;;32.80;21.38;;;13.00;99.90;;;;;;5047310;28;20025;-64
2022/03/16 08:34:48;;;;;;;27.73;18.77;;;13.10;99.90;;;;;;5050492;28;20068;-64
2022/03/16 08:37:13;;;;;;;30.65;18.02;;;13.10;99.90;;;;;;5051206;28;20056;-64
2022/03/16 08:39:40;;;;;;;27.27;18.80;;;13.20;99.90;;;;;;5045963;28;20457;-64
2022/03/16 08:42:07;;;;;;;27.63;18.27;;;13.30;99.90;;;;;;5047913;28;20048;-67
2022/03/16 08:44:33;;;;;;;28.17;17.98;;;13.50;99.90;;;;;;5046208;28;20067;-69
2022/03/16 08:46:59;;;;;;;26.65;17.20;;;13.80;99.90;;;;;;5048967;28;20048;-70
2022/03/16 08:49:25;;;;;;;25.00;18.17;;;14.20;99.90;;;;;;5050551;28;20493;-69
2022/03/16 08:51:51;;;;;;;22.55;16.63;;;14.60;99.90;;;;;;5048631;28;20031;-69
2022/03/16 08:54:17;;;;;;;27.92;16.58;;;14.80;99.90;;;;;;5048410;28;20116;-70
2022/03/16 08:56:43;;;;;;;28.00;16.77;;;14.90;99.90;;;;;;5048313;28;20040;-69
2022/03/16 08:59:09;;;;;;;22.23;15.95;;;14.90;99.90;;;;;;5050307;28;20489;-69
2022/03/16 09:01:36;;;;;;;21.02;16.05;;;14.80;99.90;;;;;;5052605;28;20032;-69
2022/03/16 09:04:02;;;;;;;23.92;16.10;;;14.80;99.90;;;;;;5048098;28;20052;-69
2022/03/16 09:06:28;;;;;;;23.58;15.25;;;15.00;99.90;;;;;;5046707;28;20032;-70
2022/03/16 09:08:54;;;;;;;22.92;16.13;;;14.90;99.90;;;;;;5046433;28;20028;-69
2022/03/16 09:11:20;;;;;;;22.98;16.48;;;14.90;99.90;;;;;;5046623;28;20408;-69
2022/03/16 09:13:47;;;;;;;23.48;15.02;;;14.80;99.90;;;;;;5050926;28;20200;-69
2022/03/16 09:16:14;;;;;;;25.13;14.95;;;14.70;99.90;;;;;;5048707;28;20029;-68
2022/03/16 09:18:40;;;;;;;21.98;14.75;;;14.70;99.90;;;;;;5046340;28;20035;-69
2022/03/16 09:21:07;;;;;;;24.52;15.60;;;14.60;99.90;;;;;;5046510;28;20025;-69
2022/03/16 09:23:33;;;;;;;21.52;15.25;;;14.60;99.90;;;;;;5046817;28;20026;-69
2022/03/16 09:25:59;;;;;;;23.30;15.02;;;14.50;99.90;;;;;;5048957;28;20021;-70
2022/03/16 09:28:25;;;;;;;23.73;14.90;;;14.40;99.90;;;;;;5050072;28;20485;-69
2022/03/16 09:30:51;;;;;;;21.15;14.45;;;14.40;99.90;;;;;;5046694;28;20045;-70
2022/03/16 09:33:17;;;;;;;27.33;16.00;;;14.40;99.90;;;;;;5046462;28;20044;-69
2022/03/16 09:35:44;;;;;;;27.17;17.90;;;14.40;99.90;;;;;;5046344;28;20021;-69
2022/03/16 09:38:12;;;;;;;23.70;15.45;;;14.40;99.90;;;;;;5048400;28;20087;-69
2022/03/16 09:40:38;;;;;;;26.48;17.48;;;14.30;99.90;;;;;;5051669;28;20496;-68
2022/03/16 09:43:08;;;;;;;23.92;17.42;;;14.30;99.90;;;;;;5044840;28;20090;-68
2022/03/16 09:45:46;;;;;;;27.58;19.33;;;14.30;99.90;;;;;;5047226;28;20025;-69
2022/03/16 09:48:13;;;;;;;25.75;17.80;;;14.30;99.90;;;;;;5040036;28;20154;-70
2022/03/16 09:50:41;;;;;;;33.20;20.83;;;14.30;99.90;;;;;;5047747;28;20037;-66
2022/03/16 09:53:13;;;;;;;35.53;20.08;;;14.30;99.90;;;;;;5049388;28;20056;-67
2022/03/16 09:55:39;;;;;;;25.83;17.27;;;14.30;99.90;;;;;;5051649;28;20036;-66
2022/03/16 09:58:05;;;;;;;25.13;17.25;;;14.30;99.90;;;;;;5046182;28;20512;-66
2022/03/16 10:00:31;;;;;;;27.98;17.92;;;14.30;99.90;;;;;;5047914;28;20021;-66
2022/03/16 10:03:07;;;;;;;24.85;16.77;;;14.40;99.90;;;;;;5047606;28;20037;-66
2022/03/16 10:05:34;;;;;;;27.10;17.08;;;14.40;99.90;;;;;;5048099;28;20029;-66
2022/03/16 10:08:02;;;;;;;27.30;16.88;;;14.40;99.90;;;;;;5049318;28;20462;-65
2022/03/16 10:13:21;;;;;;;26.00;15.32;;;14.30;99.90;;;;;;5048519;28;20527;-66
2022/03/16 10:15:51;;;;;;;21.23;15.48;;;14.30;99.90;;;;;;5047212;28;20366;-65
2022/03/16 10:18:19;;;;;;;23.40;15.77;;;14.20;99.90;;;;;;5049357;28;20094;-65
2022/03/16 10:20:45;;;;;;;24.15;16.42;;;14.20;99.90;;;;;;5047522;28;20057;-66
2022/03/16 10:23:24;;;;;;;28.38;16.10;;;14.20;99.90;;;;;;5047626;28;20072;-66
2022/03/16 10:25:55;;;;;;;23.15;14.93;;;14.20;99.90;;;;;;5048118;28;20024;-66
2022/03/16 10:28:26;;;;;;;23.98;15.35;;;14.20;99.90;;;;;;5049293;28;20061;-66
2022/03/16 10:31:00;;;;;;;23.38;15.77;;;14.30;99.90;;;;;;5047640;28;20112;-66
2022/03/16 10:33:33;;;;;;;25.45;15.40;;;14.40;99.90;;;;;;5045536;28;20043;-66
2022/03/16 10:36:05;;;;;;;24.33;16.50;;;14.40;99.90;;;;;;5048545;28;20163;-66
2022/03/16 10:38:51;;;;;;;23.05;15.88;;;14.30;99.90;;;;;;5045228;28;20034;-66
2022/03/16 10:47:14;;;;;;;25.35;15.48;;;14.50;99.90;;;;;;5045313;28;20032;-66
2022/03/16 10:49:41;;;;;;;24.17;15.38;;;14.50;99.90;;;;;;5049379;28;20025;-66
2022/03/16 10:52:17;;;;;;;22.60;15.52;;;14.50;99.90;;;;;;5048937;28;20033;-66
2022/03/16 10:54:44;;;;;;;29.05;15.95;;;14.60;99.90;;;;;;5034435;28;20064;-66
2022/03/16 10:57:12;;;;;;;26.33;15.02;;;14.60;99.90;;;;;;5050209;28;20551;-66
2022/03/16 10:59:40;;;;;;;22.42;14.93;;;14.50;99.90;;;;;;5049569;28;20087;-66
2022/03/16 11:02:13;;;;;;;22.85;14.07;;;14.50;99.90;;;;;;5050092;28;20063;-66
2022/03/16 11:04:44;;;;;;;19.38;13.88;;;14.50;99.90;;;;;;5052710;28;20166;-66
2022/03/16 11:07:11;;;;;;;25.25;14.60;;;14.60;99.90;;;;;;5046891;28;20040;-66
2022/03/16 11:09:37;;;;;;;24.40;15.85;;;14.70;99.90;;;;;;5045881;28;20509;-66
2022/03/16 11:14:50;;;;;;;19.27;13.07;;;14.70;99.90;;;;;;5047444;28;20086;-65
2022/03/16 11:17:17;;;;;;;20.65;13.23;;;14.80;99.90;;;;;;5032049;28;20044;-66
2022/03/16 11:19:45;;;;;;;22.35;14.25;;;14.80;99.90;;;;;;5052048;28;20072;-66
2022/03/16 11:22:20;;;;;;;25.17;13.65;;;14.80;99.90;;;;;;5047137;28;20055;-66
2022/03/16 11:25:15;;;;;;;28.92;20.02;;;14.80;99.90;;;;;;5048173;28;20037;-66
2022/03/16 11:27:49;;;;;;;24.20;14.63;;;14.90;99.90;;;;;;5045490;28;20029;-66
2022/03/16 11:30:36;;;;;;;25.67;14.50;;;14.90;99.90;;;;;;5049469;28;20051;-66
2022/03/16 11:33:07;;;;;;;20.67;13.15;;;14.80;99.90;;;;;;5050356;28;20029;-67
2022/03/16 11:35:35;;;;;;;411.70;286.70;;;14.90;99.90;;;;;;5052628;28;20041;-67
2022/03/16 11:38:10;;;;;;;49.65;38.47;;;14.90;99.90;;;;;;5044488;28;20029;-70
2022/03/16 11:40:50;;;;;;;22.35;15.32;;;14.90;99.90;;;;;;5046724;28;20067;-73
2022/03/16 11:43:24;;;;;;;23.27;15.05;;;14.90;99.90;;;;;;5048171;28;20088;-71
2022/03/16 11:45:54;;;;;;;18.40;11.90;;;14.80;99.90;;;;;;5043203;28;20033;-67
2022/03/16 11:48:33;;;;;;;19.83;11.80;;;14.80;99.90;;;;;;5046461;28;20029;-70
2022/03/16 11:51:16;;;;;;;17.90;11.00;;;14.80;99.90;;;;;;5044409;28;20098;-72
2022/03/16 11:53:58;;;;;;;17.95;12.57;;;14.80;99.90;;;;;;5051293;28;20029;-71
2022/03/16 11:56:39;;;;;;;22.10;12.15;;;14.90;99.90;;;;;;5042944;28;20412;-72
2022/03/16 11:59:18;;;;;;;18.23;11.73;;;15.00;99.90;;;;;;5050641;28;20017;-72
2022/03/16 12:01:52;;;;;;;18.52;11.70;;;15.00;99.90;;;;;;5048034;28;20025;-71
2022/03/16 12:04:35;;;;;;;18.52;12.20;;;14.90;99.90;;;;;;5051809;28;20405;-72
2022/03/16 12:07:11;;;;;;;19.08;11.57;;;15.00;99.90;;;;;;5050977;28;20029;-73
2022/03/16 12:09:56;;;;;;;16.73;10.50;;;15.00;99.90;;;;;;5050770;28;20031;-71
2022/03/16 12:15:22;;;;;;;20.20;11.63;;;15.10;99.90;;;;;;5051650;28;20056;-72
2022/03/16 12:17:51;;;;;;;19.08;11.73;;;15.20;99.90;;;;;;5050087;28;20028;-70
2022/03/16 12:20:23;;;;;;;18.52;11.63;;;15.20;99.90;;;;;;5050137;28;20024;-70
2022/03/16 12:22:52;;;;;;;20.65;11.85;;;15.30;99.90;;;;;;5048913;28;20033;-71
2022/03/16 12:25:27;;;;;;;20.80;11.18;;;15.30;99.90;;;;;;5051740;28;20029;-72
2022/03/16 12:31:15;;;;;;;19.25;11.95;;;15.40;99.90;;;;;;4990406;28;20049;-69
2022/03/16 12:33:46;;;;;;;18.33;12.23;;;15.40;99.90;;;;;;4990076;28;20538;-68
2022/03/16 12:36:18;;;;;;;18.48;11.48;;;15.30;99.90;;;;;;4987257;28;20042;-69
2022/03/16 12:38:49;;;;;;;23.20;11.93;;;15.40;99.90;;;;;;4989946;28;20133;-67
2022/03/16 12:44:10;;;;;;;21.33;11.63;;;15.50;99.90;;;;;;4990503;28;20089;-69
2022/03/16 12:47:03;;;;;;;16.88;10.60;;;15.50;99.90;;;;;;4990260;28;20039;-69
2022/03/16 12:49:30;;;;;;;19.38;10.88;;;15.60;99.90;;;;;;4991048;28;20177;-68
2022/03/16 12:52:00;;;;;;;18.92;11.50;;;15.60;99.90;;;;;;4988108;28;20082;-67